createdAt,value
2018-01-07T00:02:21.545Z,101028.41
2018-01-07T00:04:51.298Z,101036.63
2018-01-07T00:07:20.501Z,101043.21
2018-01-07T00:09:51.566Z,101038.25
2018-01-07T00:12:21.601Z,101044.19
2018-01-07T00:14:50.584Z,101053.13
2018-01-07T00:17:19.738Z,101053.58
2018-01-07T00:19:48.681Z,101055.65
2018-01-07T00:22:17.919Z,101058.06
2018-01-07T00:24:48.948Z,101057.16
2018-01-07T00:27:18.000Z,101064.75
2018-01-07T00:29:47.366Z,101062.88
2018-01-07T00:32:19.618Z,101062.61
2018-01-07T00:34:48.897Z,101063.47
2018-01-07T00:37:20.388Z,101066.41
2018-01-07T00:39:50.442Z,101062.63
2018-01-07T00:42:23.583Z,101066.47
2018-01-07T00:44:52.648Z,101060.39
2018-01-07T00:47:22.417Z,101059.61
2018-01-07T00:49:52.241Z,101053.50
2018-01-07T00:52:21.243Z,101055.40
2018-01-07T00:54:51.906Z,101043.67
2018-01-07T00:57:23.633Z,101045.57
2018-01-07T00:59:52.725Z,101048.43
2018-01-07T01:02:21.993Z,101048.09
2018-01-07T01:04:53.783Z,101044.10
2018-01-07T01:07:23.305Z,101045.56
2018-01-07T01:09:59.105Z,101050.17
2018-01-07T01:12:28.549Z,101042.59
2018-01-07T01:14:59.036Z,101048.02
2018-01-07T01:17:29.034Z,101046.65
2018-01-07T01:19:58.121Z,101050.87
2018-01-07T01:22:27.226Z,101052.67
2018-01-07T01:24:57.256Z,101054.56
2018-01-07T01:27:27.450Z,101049.32
2018-01-07T01:29:57.012Z,101053.27
2018-01-07T01:32:33.705Z,101051.64
2018-01-07T01:35:03.303Z,101051.00
2018-01-07T01:37:33.432Z,101043.47
2018-01-07T01:40:02.438Z,101046.34
2018-01-07T01:42:31.570Z,101042.33
2018-01-07T01:45:01.672Z,101048.62
2018-01-07T01:47:31.972Z,101045.85
2018-01-07T01:50:01.174Z,101048.25
2018-01-07T01:52:30.313Z,101048.68
2018-01-07T01:54:59.418Z,101051.41
2018-01-07T01:57:28.562Z,101047.70
2018-01-07T01:59:57.547Z,101047.94
2018-01-07T02:02:27.598Z,101040.98
2018-01-07T02:04:57.651Z,101041.67
2018-01-07T02:07:27.742Z,101039.79
2018-01-07T02:09:58.063Z,101043.98
2018-01-07T02:12:27.363Z,101045.12
2018-01-07T02:14:56.567Z,101044.13
2018-01-07T02:17:25.546Z,101038.46
2018-01-07T02:19:55.981Z,101035.34
2018-01-07T02:22:25.850Z,101040.62
2018-01-07T02:24:55.812Z,101031.68
2018-01-07T02:27:25.023Z,101032.09
2018-01-07T02:29:55.355Z,101034.59
2018-01-07T02:32:24.546Z,101032.61
2018-01-07T02:34:53.555Z,101030.12
2018-01-07T02:37:23.777Z,101029.59
2018-01-07T02:39:53.096Z,101026.53
2018-01-07T02:42:22.110Z,101020.52
2018-01-07T02:44:52.865Z,101030.08
2018-01-07T02:47:21.849Z,101018.73
2018-01-07T02:49:51.814Z,101031.70
2018-01-07T02:52:22.604Z,101027.23
2018-01-07T02:54:52.825Z,101024.25
2018-01-07T02:57:21.908Z,101019.35
2018-01-07T02:59:52.745Z,101026.91
2018-01-07T03:02:22.669Z,101031.58
2018-01-07T03:04:52.207Z,101028.09
2018-01-07T03:07:23.240Z,101033.02
2018-01-07T03:09:54.285Z,101028.70
2018-01-07T03:12:27.033Z,101032.50
2018-01-07T03:14:57.152Z,101029.64
2018-01-07T03:17:28.934Z,101025.53
2018-01-07T03:19:58.824Z,101036.50
2018-01-07T03:22:27.781Z,101026.52
2018-01-07T03:24:57.118Z,101027.81
2018-01-07T03:27:26.216Z,101031.68
2018-01-07T03:29:55.211Z,101032.05
2018-01-07T03:32:28.154Z,101029.87
2018-01-07T03:34:57.113Z,101035.22
2018-01-07T03:37:26.203Z,101031.72
2018-01-07T03:39:56.027Z,101035.81
2018-01-07T03:42:26.121Z,101033.14
2018-01-07T03:44:56.858Z,101030.70
2018-01-07T03:47:25.966Z,101025.19
2018-01-07T03:49:55.074Z,101030.66
2018-01-07T03:52:24.156Z,101031.22
2018-01-07T03:54:53.247Z,101031.62
2018-01-07T03:57:22.169Z,101031.61
2018-01-07T03:59:52.152Z,101034.16
2018-01-07T04:02:21.121Z,101036.09
2018-01-07T04:04:50.335Z,101028.09
2018-01-07T04:07:20.263Z,101032.06
2018-01-07T04:09:49.403Z,101027.82
2018-01-07T04:12:18.500Z,101028.49
2018-01-07T04:14:49.503Z,101032.22
2018-01-07T04:17:18.485Z,101034.62
2018-01-07T04:19:47.427Z,101042.23
2018-01-07T04:22:17.330Z,101035.45
2018-01-07T04:24:46.426Z,101035.55
2018-01-07T04:27:16.307Z,101041.58
2018-01-07T04:29:46.270Z,101044.28
2018-01-07T04:32:22.123Z,101041.39
2018-01-07T04:34:51.230Z,101049.45
2018-01-07T04:37:20.324Z,101050.33
2018-01-07T04:39:49.529Z,101052.50
2018-01-07T04:42:18.519Z,101048.21
2018-01-07T04:44:48.415Z,101049.32
2018-01-07T04:47:18.107Z,101053.56
2018-01-07T04:49:48.765Z,101051.45
2018-01-07T04:52:17.933Z,101048.92
2018-01-07T04:54:46.908Z,101049.81
2018-01-07T04:57:18.357Z,101055.95
2018-01-07T04:59:47.472Z,101056.54
2018-01-07T05:02:17.980Z,101054.55
2018-01-07T05:04:47.202Z,101063.97
2018-01-07T05:07:17.728Z,101063.31
2018-01-07T05:09:46.826Z,101063.19
2018-01-07T05:12:19.339Z,101058.47
2018-01-07T05:14:48.536Z,101058.04
2018-01-07T05:17:17.477Z,101062.34
2018-01-07T05:19:46.594Z,101063.95
2018-01-07T05:22:15.782Z,101062.53
2018-01-07T05:24:45.745Z,101067.26
2018-01-07T05:27:14.885Z,101063.78
2018-01-07T05:29:45.778Z,101065.09
2018-01-07T05:32:14.917Z,101066.89
2018-01-07T05:34:46.742Z,101068.41
2018-01-07T05:37:15.720Z,101069.65
2018-01-07T05:39:44.631Z,101068.25
2018-01-07T05:42:13.929Z,101071.45
2018-01-07T05:44:42.819Z,101074.13
2018-01-07T05:47:11.705Z,101072.55
2018-01-07T05:49:40.951Z,101079.08
2018-01-07T05:52:10.063Z,101075.47
2018-01-07T05:54:39.960Z,101083.38
2018-01-07T05:57:10.099Z,101087.97
2018-01-07T05:59:40.098Z,101091.79
2018-01-07T06:02:09.187Z,101093.47
2018-01-07T06:04:38.304Z,101091.48
2018-01-07T06:07:08.322Z,101105.05
2018-01-07T06:09:37.299Z,101102.51
2018-01-07T06:12:07.317Z,101096.09
2018-01-07T06:14:36.272Z,101097.34
2018-01-07T06:17:05.422Z,101096.89
2018-01-07T06:19:35.218Z,101101.62
2018-01-07T06:22:04.232Z,101109.03
2018-01-07T06:24:34.153Z,101111.19
2018-01-07T06:27:03.342Z,101117.64
2018-01-07T06:29:32.282Z,101116.55
2018-01-07T06:32:01.308Z,101120.92
2018-01-07T06:34:30.428Z,101122.36
2018-01-07T06:36:59.520Z,101122.88
2018-01-07T06:39:29.427Z,101123.84
2018-01-07T06:41:58.769Z,101121.55
2018-01-07T06:44:28.427Z,101125.04
2018-01-07T06:46:57.388Z,101124.17
2018-01-07T06:49:27.990Z,101131.37
2018-01-07T06:51:57.013Z,101123.33
2018-01-07T06:54:26.985Z,101135.60
2018-01-07T06:56:58.718Z,101132.78
2018-01-07T06:59:27.869Z,101139.52
2018-01-07T07:01:56.976Z,101148.03
2018-01-07T07:04:26.475Z,101148.89
2018-01-07T07:06:55.639Z,101148.52
2018-01-07T07:09:24.571Z,101146.06
2018-01-07T07:11:54.625Z,101154.69
2018-01-07T07:14:23.639Z,101158.58
2018-01-07T07:16:52.756Z,101158.45
2018-01-07T07:19:27.328Z,101152.69
2018-01-07T07:21:57.578Z,101167.18
2018-01-07T07:24:26.504Z,101175.68
2018-01-07T07:27:00.388Z,101172.36
2018-01-07T07:29:30.401Z,101171.66
2018-01-07T07:31:59.427Z,101161.23
2018-01-07T07:34:28.514Z,101165.55
2018-01-07T07:36:57.636Z,101162.35
2018-01-07T07:39:26.635Z,101163.34
2018-01-07T07:41:56.046Z,101154.89
2018-01-07T07:44:25.120Z,101155.37
2018-01-07T07:46:54.019Z,101152.89
2018-01-07T07:49:23.316Z,101155.94
2018-01-07T07:51:52.484Z,101164.88
2018-01-07T07:54:21.411Z,101172.56
2018-01-07T07:56:58.255Z,101173.53
2018-01-07T07:59:27.136Z,101172.70
2018-01-07T08:01:56.152Z,101174.42
2018-01-07T08:04:25.333Z,101169.44
2018-01-07T08:06:54.239Z,101177.97
2018-01-07T08:09:24.110Z,101175.47
2018-01-07T08:11:54.075Z,101174.64
2018-01-07T08:14:25.000Z,101174.30
2018-01-07T08:16:56.975Z,101187.48
2018-01-07T08:19:26.068Z,101189.62
2018-01-07T08:21:55.270Z,101191.30
2018-01-07T08:24:25.401Z,101180.73
2018-01-07T08:26:54.418Z,101186.67
2018-01-07T08:29:23.420Z,101190.51
2018-01-07T08:31:52.311Z,101189.30
2018-01-07T08:34:21.323Z,101186.76
2018-01-07T08:36:50.358Z,101175.79
2018-01-07T08:39:19.309Z,101188.51
2018-01-07T08:41:49.982Z,101181.32
2018-01-07T08:44:19.841Z,101175.80
2018-01-07T08:46:48.792Z,101173.27
2018-01-07T08:49:17.929Z,101172.08
2018-01-07T08:51:46.966Z,101172.92
2018-01-07T08:54:16.797Z,101169.14
2018-01-07T08:56:52.785Z,101169.16
2018-01-07T08:59:24.952Z,101171.77
2018-01-07T09:01:54.662Z,101160.77
2018-01-07T09:04:23.715Z,101162.09
2018-01-07T09:06:52.686Z,101163.78
2018-01-07T09:09:23.689Z,101165.92
2018-01-07T09:11:54.831Z,101163.82
2018-01-07T09:14:24.387Z,101162.13
2018-01-07T09:16:54.361Z,101167.28
2018-01-07T09:19:23.517Z,101165.99
2018-01-07T09:21:52.751Z,101165.56
2018-01-07T09:24:22.439Z,101164.30
2018-01-07T09:26:51.431Z,101161.34
2018-01-07T09:29:20.450Z,101152.87
2018-01-07T09:31:49.648Z,101161.36
2018-01-07T09:34:19.131Z,101162.25
2018-01-07T09:36:48.250Z,101163.96
2018-01-07T09:39:18.064Z,101174.19
2018-01-07T09:41:47.110Z,101166.55
2018-01-07T09:44:16.124Z,101163.58
2018-01-07T09:46:45.149Z,101162.30
2018-01-07T09:49:14.078Z,101165.28
2018-01-07T09:51:43.167Z,101168.28
2018-01-07T09:54:13.457Z,101170.80
2018-01-07T09:56:44.113Z,101170.38
2018-01-07T09:59:13.122Z,101175.97
2018-01-07T10:01:42.083Z,101170.87
2018-01-07T10:04:16.406Z,101170.02
2018-01-07T10:06:47.071Z,101163.22
2018-01-07T10:09:16.066Z,101165.80
2018-01-07T10:11:46.042Z,101160.69
2018-01-07T10:14:15.956Z,101157.71
2018-01-07T10:16:45.022Z,101164.50
2018-01-07T10:19:14.095Z,101159.42
2018-01-07T10:21:43.862Z,101162.37
2018-01-07T10:24:13.264Z,101161.12
2018-01-07T10:26:42.328Z,101156.00
2018-01-07T10:29:12.069Z,101155.58
2018-01-07T10:31:41.171Z,101158.95
2018-01-07T10:34:11.806Z,101154.72
2018-01-07T10:36:43.739Z,101160.24
2018-01-07T10:39:16.624Z,101156.41
2018-01-07T10:41:46.363Z,101161.07
2018-01-07T10:44:16.448Z,101155.52
2018-01-07T10:46:50.180Z,101147.88
2018-01-07T10:49:19.177Z,101145.75
2018-01-07T10:51:49.201Z,101146.16
2018-01-07T10:54:18.493Z,101149.98
2018-01-07T10:56:48.293Z,101137.61
2018-01-07T10:59:17.297Z,101131.64
2018-01-07T11:01:52.032Z,101135.88
2018-01-07T11:04:21.022Z,101140.56
2018-01-07T11:06:49.954Z,101131.55
2018-01-07T11:09:19.096Z,101122.20
2018-01-07T11:11:50.061Z,101125.17
2018-01-07T11:14:20.888Z,101131.92
2018-01-07T11:16:55.085Z,101135.34
2018-01-07T11:19:23.975Z,101137.48
2018-01-07T11:21:53.792Z,101135.34
2018-01-07T11:24:25.586Z,101134.92
2018-01-07T11:26:54.646Z,101135.30
2018-01-07T11:29:23.741Z,101135.23
2018-01-07T11:31:52.825Z,101137.35
2018-01-07T11:34:21.831Z,101138.16
2018-01-07T11:36:51.726Z,101137.27
2018-01-07T11:39:23.554Z,101145.77
2018-01-07T11:41:52.551Z,101142.37
2018-01-07T11:44:21.539Z,101146.64
2018-01-07T11:46:51.819Z,101146.70
2018-01-07T11:49:22.695Z,101150.47
2018-01-07T11:51:51.650Z,101151.34
2018-01-07T11:54:25.941Z,101152.19
2018-01-07T11:56:54.860Z,101157.27
2018-01-07T11:59:25.799Z,101154.69
2018-01-07T12:01:54.790Z,101152.05
2018-01-07T12:04:26.448Z,101153.73
2018-01-07T12:06:57.067Z,101157.57
2018-01-07T12:09:26.812Z,101159.25
2018-01-07T12:11:55.784Z,101154.53
2018-01-07T12:14:26.785Z,101159.60
2018-01-07T12:17:00.698Z,101158.77
2018-01-07T12:19:29.816Z,101158.78
2018-01-07T12:21:58.721Z,101157.05
2018-01-07T12:24:28.638Z,101161.31
2018-01-07T12:26:57.631Z,101160.44
2018-01-07T12:29:26.524Z,101174.96
2018-01-07T12:31:55.662Z,101165.55
2018-01-07T12:34:25.473Z,101159.14
2018-01-07T12:36:54.527Z,101159.13
2018-01-07T12:39:23.522Z,101164.22
2018-01-07T12:41:52.515Z,101168.48
2018-01-07T12:44:22.565Z,101162.87
2018-01-07T12:46:52.510Z,101176.04
2018-01-07T12:49:21.652Z,101172.59
2018-01-07T12:51:50.746Z,101181.14
2018-01-07T12:54:19.738Z,101184.98
2018-01-07T12:56:52.585Z,101185.42
2018-01-07T12:59:21.618Z,101190.08
2018-01-07T13:01:50.498Z,101192.64
2018-01-07T13:04:19.505Z,101191.38
2018-01-07T13:06:48.565Z,101193.94
2018-01-07T13:09:20.217Z,101201.15
2018-01-07T13:11:49.594Z,101201.14
2018-01-07T13:14:20.234Z,101210.95
2018-01-07T13:16:49.995Z,101211.37
2018-01-07T13:19:20.018Z,101208.84
2018-01-07T13:21:49.274Z,101207.56
2018-01-07T13:24:18.375Z,101211.80
2018-01-07T13:26:47.653Z,101216.95
2018-01-07T13:29:16.566Z,101219.91
2018-01-07T13:31:45.602Z,101223.70
2018-01-07T13:34:16.236Z,101222.89
2018-01-07T13:36:46.053Z,101237.42
2018-01-07T13:39:16.062Z,101235.23
2018-01-07T13:41:45.056Z,101239.95
2018-01-07T13:44:14.974Z,101238.27
2018-01-07T13:46:44.684Z,101245.92
2018-01-07T13:49:15.585Z,101246.33
2018-01-07T13:51:44.554Z,101254.02
2018-01-07T13:54:13.513Z,101258.73
2018-01-07T13:56:45.988Z,101253.61
2018-01-07T13:59:15.146Z,101259.21
2018-01-07T14:01:46.944Z,101257.52
2018-01-07T14:04:16.043Z,101258.86
2018-01-07T14:06:45.037Z,101262.30
2018-01-07T14:09:16.468Z,101261.45
2018-01-07T14:11:46.498Z,101263.59
2018-01-07T14:14:15.599Z,101263.19
2018-01-07T14:16:45.694Z,101275.16
2018-01-07T14:19:15.773Z,101273.52
2018-01-07T14:21:44.730Z,101277.77
2018-01-07T14:24:15.519Z,101281.63
2018-01-07T14:26:44.775Z,101278.30
2018-01-07T14:29:14.621Z,101285.98
2018-01-07T14:31:44.592Z,101285.10
2018-01-07T14:34:14.572Z,101288.56
2018-01-07T14:36:46.588Z,101287.72
2018-01-07T14:39:17.116Z,101284.77
2018-01-07T14:41:46.559Z,101290.73
2018-01-07T14:44:18.021Z,101306.09
2018-01-07T14:46:47.782Z,101306.96
2018-01-07T14:49:16.816Z,101313.34
2018-01-07T14:51:46.050Z,101312.95
2018-01-07T14:54:14.936Z,101312.94
2018-01-07T14:56:44.872Z,101313.37
2018-01-07T14:59:14.355Z,101318.50
2018-01-07T15:01:44.793Z,101323.60
2018-01-07T15:04:14.330Z,101327.41
2018-01-07T15:06:43.701Z,101328.27
2018-01-07T15:09:12.824Z,101327.81
2018-01-07T15:11:43.271Z,101327.81
2018-01-07T15:14:12.608Z,101331.22
2018-01-07T15:16:42.158Z,101336.28
2018-01-07T15:19:15.094Z,101339.67
2018-01-07T15:21:44.319Z,101345.63
2018-01-07T15:24:13.483Z,101348.60
2018-01-07T15:26:43.579Z,101352.00
2018-01-07T15:29:13.055Z,101357.91
2018-01-07T15:31:41.956Z,101363.43
2018-01-07T15:34:11.163Z,101356.61
2018-01-07T15:36:40.991Z,101365.90
2018-01-07T15:39:10.543Z,101374.80
2018-01-07T15:41:45.512Z,101369.16
2018-01-07T15:44:14.975Z,101368.66
2018-01-07T15:46:45.251Z,101372.00
2018-01-07T15:49:20.073Z,101368.09
2018-01-07T15:51:49.406Z,101372.72
2018-01-07T15:54:19.554Z,101370.14
2018-01-07T15:56:49.817Z,101370.98
2018-01-07T15:59:19.221Z,101372.14
2018-01-07T16:01:48.643Z,101375.53
2018-01-07T16:04:18.027Z,101381.03
2018-01-07T16:06:47.588Z,101382.23
2018-01-07T16:09:16.717Z,101386.45
2018-01-07T16:11:46.749Z,101379.64
2018-01-07T16:14:16.064Z,101377.47
2018-01-07T16:16:45.541Z,101378.69
2018-01-07T16:19:16.773Z,101380.77
2018-01-07T16:21:45.909Z,101384.97
2018-01-07T16:24:15.325Z,101379.83
2018-01-07T16:26:46.475Z,101383.20
2018-01-07T16:29:15.908Z,101379.85
2018-01-07T16:31:44.966Z,101384.44
2018-01-07T16:34:15.878Z,101392.07
2018-01-07T16:36:45.274Z,101392.06
2018-01-07T16:39:16.193Z,101392.01
2018-01-07T16:41:46.392Z,101400.89
2018-01-07T16:44:15.649Z,101397.86
2018-01-07T16:46:45.260Z,101395.72
2018-01-07T16:49:14.771Z,101394.80
2018-01-07T16:51:44.892Z,101403.66
2018-01-07T16:54:14.096Z,101401.14
2018-01-07T16:56:43.176Z,101398.61
2018-01-07T16:59:12.687Z,101394.45
2018-01-07T17:01:41.997Z,101402.53
2018-01-07T17:04:12.865Z,101397.43
2018-01-07T17:06:41.761Z,101400.89
2018-01-07T17:09:10.772Z,101395.45
2018-01-07T17:11:39.748Z,101400.63
2018-01-07T17:14:08.655Z,101403.19
2018-01-07T17:16:37.674Z,101404.46
2018-01-07T17:19:06.634Z,101406.16
2018-01-07T17:21:35.559Z,101402.66
2018-01-07T17:24:04.531Z,101408.98
2018-01-07T17:27:08.231Z,101414.06
2018-01-07T17:29:38.640Z,101412.32
2018-01-07T17:32:08.769Z,101417.81
2018-01-07T17:34:38.184Z,101411.42
2018-01-07T17:37:07.371Z,101416.50
2018-01-07T17:39:36.752Z,101416.50
2018-01-07T17:42:06.018Z,101419.89
2018-01-07T17:44:35.131Z,101425.02
2018-01-07T17:47:05.243Z,101416.55
2018-01-07T17:49:36.801Z,101418.25
2018-01-07T17:52:06.350Z,101423.77
2018-01-07T17:54:35.760Z,101424.19
2018-01-07T17:57:05.149Z,101428.44
2018-01-07T17:59:35.055Z,101433.08
2018-01-07T18:02:05.414Z,101431.41
2018-01-07T18:04:34.604Z,101431.42
2018-01-07T18:07:04.836Z,101430.65
2018-01-07T18:09:34.007Z,101431.58
2018-01-07T18:12:03.683Z,101433.77
2018-01-07T18:14:34.541Z,101435.45
2018-01-07T18:17:04.684Z,101432.53
2018-01-07T18:19:34.805Z,101438.13
2018-01-07T18:22:05.018Z,101434.39
2018-01-07T18:24:34.343Z,101430.15
2018-01-07T18:27:03.536Z,101434.78
2018-01-07T18:29:37.284Z,101442.44
2018-01-07T18:32:06.282Z,101442.45
2018-01-07T18:34:36.402Z,101449.69
2018-01-07T18:37:05.697Z,101457.34
2018-01-07T18:39:35.443Z,101464.09
2018-01-07T18:42:04.713Z,101464.13
2018-01-07T18:44:34.058Z,101466.20
2018-01-07T18:47:03.172Z,101465.39
2018-01-07T18:49:33.634Z,101468.06
2018-01-07T18:52:03.034Z,101475.73
2018-01-07T18:54:32.857Z,101479.59
2018-01-07T18:57:01.984Z,101485.64
2018-01-07T18:59:31.110Z,101485.67
2018-01-07T19:02:01.185Z,101490.38
2018-01-07T19:04:30.245Z,101489.96
2018-01-07T19:07:00.149Z,101487.90
2018-01-07T19:09:29.973Z,101489.11
2018-01-07T19:11:58.906Z,101484.08
2018-01-07T19:14:28.066Z,101488.25
2018-01-07T19:16:57.145Z,101495.06
2018-01-07T19:19:26.994Z,101495.13
2018-01-07T19:21:56.976Z,101485.38
2018-01-07T19:24:27.434Z,101489.64
2018-01-07T19:26:56.534Z,101490.10
2018-01-07T19:29:28.293Z,101486.72
2018-01-07T19:31:57.527Z,101486.30
2018-01-07T19:34:26.479Z,101482.47
2018-01-07T19:36:55.502Z,101482.03
2018-01-07T19:39:24.689Z,101486.26
2018-01-07T19:41:53.867Z,101484.98
2018-01-07T19:44:25.254Z,101490.53
2018-01-07T19:46:54.466Z,101489.66
2018-01-07T19:49:24.268Z,101493.51
2018-01-07T19:51:55.181Z,101496.06
2018-01-07T19:54:24.111Z,101496.49
2018-01-07T19:56:52.978Z,101501.63
2018-01-07T19:59:24.404Z,101490.16
2018-01-07T20:01:54.558Z,101511.75
2018-01-07T20:04:23.848Z,101510.91
2018-01-07T20:06:52.907Z,101513.83
2018-01-07T20:09:22.185Z,101516.81
2018-01-07T20:11:52.435Z,101510.86
2018-01-07T20:14:23.277Z,101512.94
2018-01-07T20:16:52.577Z,101513.78
2018-01-07T20:19:21.697Z,101511.25
2018-01-07T20:21:51.766Z,101519.25
2018-01-07T20:24:21.148Z,101526.42
2018-01-07T20:26:50.401Z,101524.73
2018-01-07T20:29:20.319Z,101517.46
2018-01-07T20:31:49.155Z,101519.57
2018-01-07T20:34:17.999Z,101525.92
2018-01-07T20:36:49.390Z,101521.73
2018-01-07T20:39:19.437Z,101518.40
2018-01-07T20:41:48.542Z,101521.75
2018-01-07T20:44:17.471Z,101521.32
2018-01-07T20:46:46.517Z,101516.64
2018-01-07T20:49:15.494Z,101526.45
2018-01-07T20:51:44.922Z,101532.36
2018-01-07T20:54:13.934Z,101532.37
2018-01-07T20:56:42.910Z,101530.09
2018-01-07T20:59:12.185Z,101535.14
2018-01-07T21:01:41.067Z,101531.34
2018-01-07T21:04:10.095Z,101542.80
2018-01-07T21:06:42.640Z,101539.84
2018-01-07T21:09:11.574Z,101535.17
2018-01-07T21:11:40.581Z,101534.27
2018-01-07T21:14:09.526Z,101540.72
2018-01-07T21:16:38.426Z,101536.20
2018-01-07T21:19:07.367Z,101535.08
2018-01-07T21:21:36.482Z,101535.53
2018-01-07T21:24:05.458Z,101534.79
2018-01-07T21:26:34.334Z,101535.26
2018-01-07T21:29:04.838Z,101528.48
2018-01-07T21:31:33.688Z,101522.26
2018-01-07T21:34:02.516Z,101528.31
2018-01-07T21:36:31.526Z,101530.90
2018-01-07T21:39:00.404Z,101531.34
2018-01-07T21:41:29.282Z,101536.08
2018-01-07T21:43:59.061Z,101540.36
2018-01-07T21:46:27.949Z,101545.89
2018-01-07T21:48:56.840Z,101544.63
2018-01-07T21:51:25.864Z,101542.08
2018-01-07T21:53:54.717Z,101542.09
2018-01-07T21:56:23.639Z,101548.90
2018-01-07T21:58:52.561Z,101546.33
2018-01-07T22:01:33.338Z,101546.73
2018-01-07T22:04:02.193Z,101545.44
2018-01-07T22:06:43.122Z,101549.69
2018-01-07T22:09:12.991Z,101552.25
2018-01-07T22:11:43.176Z,101545.02
2018-01-07T22:14:12.532Z,101552.72
2018-01-07T22:16:42.466Z,101558.68
2018-01-07T22:19:11.758Z,101543.00
2018-01-07T22:21:41.080Z,101548.95
2018-01-07T22:24:11.391Z,101545.98
2018-01-07T22:26:40.684Z,101550.64
2018-01-07T22:29:11.554Z,101552.73
2018-01-07T22:31:40.723Z,101537.82
2018-01-07T22:34:10.080Z,101541.63
2018-01-07T22:36:40.086Z,101538.62
2018-01-07T22:39:09.107Z,101533.91
2018-01-07T22:41:38.392Z,101527.93
2018-01-07T22:44:09.198Z,101523.20
2018-01-07T22:46:38.625Z,101521.08
2018-01-07T22:49:07.652Z,101516.41
2018-01-07T22:51:36.748Z,101521.09
2018-01-07T22:54:05.650Z,101513.46
2018-01-07T22:56:34.782Z,101519.44
2018-01-07T22:59:04.129Z,101524.09
2018-01-07T23:01:33.091Z,101516.89
2018-01-07T23:04:02.004Z,101526.24
2018-01-07T23:06:31.783Z,101531.34
2018-01-07T23:09:00.868Z,101533.53
2018-01-07T23:11:29.775Z,101526.66
2018-01-07T23:13:58.713Z,101526.66
2018-01-07T23:16:27.808Z,101534.33
2018-01-07T23:18:56.826Z,101533.48
2018-01-07T23:21:25.916Z,101544.09
2018-01-07T23:23:54.844Z,101534.75
2018-01-07T23:26:23.796Z,101530.06
2018-01-07T23:28:53.141Z,101533.95
2018-01-07T23:31:22.017Z,101536.02
2018-01-07T23:33:51.032Z,101535.16
2018-01-07T23:36:21.141Z,101544.49
2018-01-07T23:38:50.159Z,101554.69
2018-01-07T23:41:19.134Z,101561.06
2018-01-07T23:43:48.021Z,101559.80
2018-01-07T23:46:16.911Z,101558.10
2018-01-07T23:48:45.855Z,101558.50
2018-01-07T23:51:14.750Z,101565.30
2018-01-07T23:53:43.627Z,101575.08
2018-01-07T23:56:12.510Z,101566.16
2018-01-07T23:58:43.387Z,101570.39
